View Sortable Currents For Network
ASOSAWOSCoCoRaHSCOOPDCPISUSM
SchoolNetOtherSCANMy FavoritesBy StateRWIS
RWIS SurfaceRWIS TrafficRWIS SoilBy NWS WFO
ADD: Station: Ob Time Temps °F     Wind [knots] Precip
Air (Hi / Lo) DewP Feels RH% Vis Speed Direction Gust @Time Accum [1]
Steamboat Rock (US20)12:44 PM 62.96(65.3/61.16) 55.94 62 78 0 12G15 315 17@ 12:24 PM 0
Oskaloosa Hwy 9212:44 PM 55.2(86.5/42.8) 0 10G14 332 19@ 12:00 AM 0
Sigourney Hwy 14912:44 PM 66.7(83.5/60.7) 62.4 68 86 0 9G12 304 19@ 12:44 PM 0
Dubuque (US 20)12:44 PM 75.2(76.64/66.02) 66.02 77 73 0 4G11 290 11@ 12:14 PM 0
Des Moines (I-35)12:43 PM 63.68(66.02/61.52) 53.06 62 68 0 10G16 305 18@ 08:03 AM 0
De Witt (US 30/US 61)12:43 PM 79.7(80.06/67.28) 69.44 83 71 0 8G13 275 13@ 12:33 PM 0
Marshalltown (US 30)12:43 PM 64.04(66.38/62.24) 59.72 64 86 0 6G13 285 17@ 11:23 AM 0
Sidney (I-29/IA 2)12:42 PM 60.26(63.68/55.76) 51.08 58 72 7.1 10G13 0 18@ 10:02 AM 0
Storm Lake (US 71/IA 3)12:41 PM 57.56(58.1/53.06) 51.8 56 81 2 10G15 320 16@ 05:31 AM 0
Pella (IA 163)12:41 PM 68.18(68.9/66.02) 60.44 68 76 0 6G14 290 18@ 12:11 PM 0
Ankeny (I-35)12:41 PM 63.32(66.56/61.34) 56.3 63 78 1.2 10G17 290 17@ 11:21 AM 0
Spencer (US 18)12:41 PM (/) 1.2 8G12 320 16@ 11:11 AM 0
Grinnell (I-80)12:40 PM 65.66(68.9/64.76) 60.62 66 84 7.1 13G17 310 21@ 11:10 AM 0
Sioux City Maintenance12:40 PM (/) 0 0 0@ 06:00 PM 0
Missouri Valley (I-29)12:40 PM 57.56(57.74/52.88) 52.52 56 83 1.8 9G15 320 18@ 10:40 AM 0
Elkhart I-35 No212:40 PM (/) 1.2 0 361 0@ 06:00 PM 0
Cedar Rapids (I-380)12:40 PM 72.32(73.58/68.18) 67.28 74 84 7.1 8G10 5 14@ 11:00 AM 0
Cedar Rapids (US 30)12:40 PM 71.6(72.14/66.92) 67.82 74 88 0.4 6G10 245 15@ 11:00 AM 0
Red Oak (US 34/US 71)12:40 PM 61.7(88.52/36.32) 55.58 61 80 0 3G8 330 10@ 12:00 PM 0
Ottumwa (US 63)12:40 PM 73.94(73.94/68) 69.44 76 86 4.3 3G6 315 18@ 03:00 AM 0
New Hampton (US 18)12:40 PM 64.76(65.84/62.42) 59 65 82 7.1 8G13 5 14@ 12:10 PM 0
Centerville (IA 2)12:40 PM 70.52(71.24/65.66) 64.22 72 80 0 4G13 290 15@ 01:50 AM 0
Waterloo (US 20)12:40 PM 64.76(67.82/64.22) 64.76 67 100 0 10G13 325 22@ 11:50 AM 0
Jefferson (IA 4)12:40 PM 62.6(62.96/58.28) 53.24 61 71 7.1 4G13 260 16@ 12:00 PM 0
Iowa City (I-80)12:40 PM (/) 0 0 361 0@ 06:00 PM 0
Fort Dodge (US 20)12:40 PM 61.16(61.7/57.92) 52.52 60 73 6.3 8G15 5 16@ 11:30 AM 0
Cantril12:40 PM 72.5(73.22/66.2) 58.1 72 61 5.2 4G8 0 16@ 03:50 AM 0
Manchester (US 20)12:40 PM 70.52(71.24/65.12) 64.94 72 83 0 6G10 260 12@ 12:10 PM 0
Council Bluffs (I-80)12:40 PM 57.38(59.36/54.32) 4.64 49 12 0 9G13 170 16@ 09:50 AM 0
Sibley12:40 PM 58.82(58.82/50.72) 57.74 59 96 7.1 9G13 300 16@ 09:50 AM 0
Des Moines (I-235)12:40 PM 66.38(68/62.6) 57.2 72 7.1 0 361 0@ 06:00 PM 0
Anamosa (US 151)12:40 PM 72.86(75.56/66.38) 66.56 74 81 1.2 8G12 300 17@ 12:00 PM 0
Ida Grove (US 59)12:40 PM 56.48(58.1/53.24) 48.2 54 74 0 8G12 320 15@ 04:40 AM 0
Colfax - I-8012:40 PM 66.92(67.46/64.4) 60.44 67 80 3.6 9G13 315 16@ 11:30 AM 0
Iowa City (US 218)12:40 PM 71.42(74.48/67.82) 71.42 75 100 0 8G10 305 14@ 05:00 AM 0
Sloan I-2912:40 PM 55.04(56.3/52.16) 50.36 53 84 4.6 9G12 330 18@ 09:40 AM 0
Mount Pleasant (US 218)12:40 PM 75.56(77.9/66.74) 65.84 77 72 0 2G9 335 11@ 11:00 AM 0
De Soto (I-80/US 169)12:40 PM 62.24(66.56/60.8) 55.22 61 78 1.1 10G15 260 17@ 12:30 PM 0
Davenport (I-80/I-280)12:40 PM 80.6(81.5/68) 63.14 82 55 0 8G12 225 16@ 11:40 AM 0
Ames (I-35)12:40 PM 62.96(138.92/62.06) 55.4 62 76 7.1 11G17 295 17@ 12:40 PM 0
Tama12:40 PM 66.2(69.62/65.12) 58.82 66 77 7.1 8G13 290 21@ 12:10 PM 0
Alton (IA10)12:40 PM 54.68(55.76/50.9) 49.64 53 83 0 9G12 265 17@ 08:50 AM 0
Mason City (I-35)12:40 PM 61.7(65.3/59.54) 58.28 62 89 1.1 9G14 330 18@ 12:00 PM 0
Williamsburg (I-80)12:40 PM 71.96(71.96/66.56) 67.28 74 85 2.1 5G10 285 10@ 10:20 AM 0
Williams (I-35)12:40 PM 60.62(65.66/59.54) 54.32 60 80 0 11G16 310 20@ 12:20 PM 0
Leon (I-35)/IA 2)12:40 PM 66.38(66.74/62.78) 57.02 66 72 7.1 8G13 325 16@ 12:10 PM 0
Carroll (US 30)12:40 PM 58.28(59.9/54.86) 52.34 57 81 0 9G17 265 19@ 11:30 AM 0
Council Bluffs No212:40 PM 57.2(58.82/54.32) 51.26 56 80 0 6G12 10 13@ 10:00 AM 0
Algona (US 18)12:40 PM 61.7(132.44/57.02) 54.5 61 77 6 8G16 345 17@ 11:00 AM 0
Bedford12:40 PM 61.52(65.84/57.74) 60.08 62 95 7.1 11G14 310 16@ 11:30 AM 0
Cambridge I-3512:40 PM (/) 1.2 0 361 0@ 06:00 PM 0
Adair (I-80)12:40 PM 60.98(66.2/57.38) 51.98 59 72 7.1 9G15 325 16@ 12:30 PM 0
Tipton (I-80)12:40 PM 76.28(77.18/67.1) 64.22 78 66 4.8 5G12 270 13@ 11:10 AM 0
Maquoketa (US 61/IA 64)12:40 PM 78.62(78.62/67.82) 63.86 80 61 7.1 6G13 295 13@ 12:00 PM 0
Estherville - Hwy 912:40 PM 59.54(59.54/53.24) 53.06 58 79 0 11G17 330 18@ 11:00 AM 0
Urbana (I-380)12:40 PM 66.38(68.72/64.94) 65.66 68 98 7.1 10G17 285 17@ 12:40 PM 0
Elkhart I-35 No112:40 PM (/) 1.2 0 361 0@ 06:00 PM 0
Burlington (US 34)12:40 PM 81.68(82.22/71.6) 70.52 86 69 0 4G10 280 16@ 12:20 AM 0
Quad Cities12:40 PM 78.44(78.8/68.9) 77 82 95 7.1 9G12 270 14@ 11:20 AM 0
Eddyville12:40 PM 67.82(72.86/66.74) 30.74 63 25 7.1 6G12 335 18@ 02:50 AM 0
Denison12:40 PM 56.48(59.18/52.52) 51.8 55 84 6.9 8G13 310 17@ 11:20 AM 0
Hanlontown (I-35)12:40 PM 60.98(64.04/57.02) 55.04 81 3.8 0 265 0@ 06:00 PM 0
Avoca (I-80)12:40 PM 60.08(63.32/55.22) 59.18 61 97 4.1 9G17 310 17@ 12:40 PM 0
Rockwell City12:40 PM 59.9(59.9/55.22) 53.96 59 81 0 10G18 325 21@ 12:30 PM 0
Moville12:40 PM 57.2(57.2/51.44) 51.8 56 82 7.1 8G14 10 16@ 08:10 AM 0
Osceola (I-35)12:40 PM 66.2(66.74/63.32) 61.7 67 85 4.1 8G15 5 16@ 12:10 PM 0
Decorah (IA 9)12:40 PM 65.48(67.82/64.04) 64.76 67 98 7.1 10G16 260 16@ 12:40 PM 0
Creston (US 34)12:40 PM 62.42(66.2/59.54) 55.76 62 79 0 6G13 345 18@ 11:30 AM 0
Plainfield12:20 PM 63.5(66.38/62.24) 33.26 59 32 7.1 10G13 325 16@ 11:30 AM 0
Altoona (I-80/US 65)12:10 PM 64.76(66.02/61.88) 59.18 65 82 6.7 8G13 315 13@ 12:00 PM 0
Sigourney (IA 92)Sep-26-2017Site Offline
AinsworthMar-30-2017Site Offline
Onawa (I-29)Nov-04-2016Site Offline
Spencer 111th AveApr-01-2016Site Offline
DeWitt Hwy 61Mar-09-2016Site Offline
Argyle - US 27Jan-06-2016Site Offline
MaynardNov-24-2015Site Offline
Iowa FallsMar-01-2015Site Offline
Ames 6S I-35Dec-10-2014Site Offline
Sloan I-29 (portable)Oct-14-2013Site Offline
Osceola (US 34)Dec-07-2010Site Offline
Lime SpringsOct-03-2010Site Offline
De Witt US61Jan-01-1980Site Offline
Oskaloosa IA92Jan-01-1980Site Offline
Sabula US52Jan-01-1980Site Offline
Sabula Hwy 52Jan-01-1980Site Offline
Sigourney IA149Jan-01-1980Site Offline
  Plot (Plot / Plot) Plot Plot Plot Plot Plot Plot Plot


Notes:
1 Not all sites have the ability to measure precip nor visibility.
2 The Iowa City (I-80) RWIS site does not have atmospheric sensors on it , so it is not included on this page.